createdAt,value
2023-02-15T00:00:36.321Z,-1.5
2023-02-15T00:03:02.395Z,-1.6
2023-02-15T00:05:28.598Z,-1.6
2023-02-15T00:07:54.607Z,-1.6
2023-02-15T00:10:20.682Z,-1.6
2023-02-15T00:12:46.789Z,-1.6
2023-02-15T00:15:12.890Z,-1.7
2023-02-15T00:17:38.009Z,-1.7
2023-02-15T00:20:04.109Z,-1.7
2023-02-15T00:22:30.191Z,-1.7
2023-02-15T00:24:56.297Z,-1.7
2023-02-15T00:27:22.385Z,-1.7
2023-02-15T00:29:48.494Z,-1.8
2023-02-15T00:32:14.583Z,-1.8
2023-02-15T00:34:40.818Z,-1.8
2023-02-15T00:37:05.980Z,-1.8
2023-02-15T00:39:32.098Z,-1.9
2023-02-15T00:41:58.130Z,-1.9
2023-02-15T00:44:24.233Z,-1.9
2023-02-15T00:46:50.334Z,-1.9
2023-02-15T00:49:16.440Z,-1.9
2023-02-15T00:51:42.533Z,-1.9
2023-02-15T00:54:08.642Z,-2
2023-02-15T00:56:34.726Z,-2
2023-02-15T00:59:00.851Z,-2
2023-02-15T01:01:26.916Z,-2
2023-02-15T01:03:53.006Z,-2
2023-02-15T01:06:19.122Z,-2.1
2023-02-15T01:08:45.357Z,-2.1
2023-02-15T01:11:11.524Z,-2.1
2023-02-15T01:16:03.642Z,-2.1
2023-02-15T01:18:29.808Z,-2.1
2023-02-15T01:20:56.025Z,-2.2
2023-02-15T01:23:21.995Z,-2.2
2023-02-15T01:25:48.044Z,-2.2
2023-02-15T01:28:13.242Z,-2.2
2023-02-15T01:30:38.387Z,-2.2
2023-02-15T01:33:03.389Z,-2.2
2023-02-15T01:35:28.523Z,-2.2
2023-02-15T01:37:53.794Z,-2.2
2023-02-15T01:40:18.906Z,-2.1
2023-02-15T01:42:44.834Z,-2.1
2023-02-15T01:45:10.969Z,-2.2
2023-02-15T01:47:37.148Z,-2.2
2023-02-15T01:50:03.355Z,-2.2
2023-02-15T01:52:29.250Z,-2.2
2023-02-15T01:54:55.480Z,-2.2
2023-02-15T01:57:21.630Z,-2.3
2023-02-15T01:59:47.582Z,-2.3
2023-02-15T02:02:13.617Z,-2.3
2023-02-15T02:04:39.906Z,-2.3
2023-02-15T02:07:05.977Z,-2.3
2023-02-15T02:09:32.010Z,-2.4
2023-02-15T02:11:57.189Z,-2.4
2023-02-15T02:14:23.180Z,-2.4
2023-02-15T02:16:49.219Z,-2.4
2023-02-15T02:19:15.320Z,-2.4
2023-02-15T02:21:41.452Z,-2.4
2023-02-15T02:24:07.550Z,-2.4
2023-02-15T02:26:33.657Z,-2.5
2023-02-15T02:28:58.746Z,-2.5
2023-02-15T02:31:23.836Z,-2.5
2023-02-15T02:33:50.048Z,-2.5
2023-02-15T02:36:16.037Z,-2.5
2023-02-15T02:38:42.245Z,-2.5
2023-02-15T02:41:08.239Z,-2.5
2023-02-15T02:43:34.380Z,-2.5
2023-02-15T02:46:00.431Z,-2.5
2023-02-15T02:48:26.532Z,-2.5
2023-02-15T02:50:52.614Z,-2.5
2023-02-15T02:53:18.835Z,-2.5
2023-02-15T02:55:44.887Z,-2.5
2023-02-15T02:58:10.918Z,-2.5
2023-02-15T03:00:37.103Z,-2.6
2023-02-15T03:03:02.125Z,-2.6
2023-02-15T03:05:28.238Z,-2.6
2023-02-15T03:07:54.309Z,-2.6
2023-02-15T03:10:20.415Z,-2.6
2023-02-15T03:12:46.586Z,-2.7
2023-02-15T03:15:12.633Z,-2.7
2023-02-15T03:17:38.721Z,-2.7
2023-02-15T03:20:03.844Z,-2.7
2023-02-15T03:22:28.936Z,-2.7
2023-02-15T03:24:54.104Z,-2.7
2023-02-15T03:27:19.191Z,-2.8
2023-02-15T03:29:45.285Z,-2.8
2023-02-15T03:32:11.375Z,-2.8
2023-02-15T03:34:37.485Z,-2.8
2023-02-15T03:37:03.586Z,-2.8
2023-02-15T03:39:29.677Z,-2.8
2023-02-15T03:41:55.768Z,-2.9
2023-02-15T03:44:21.874Z,-2.9
2023-02-15T03:46:47.973Z,-2.9
2023-02-15T03:49:14.060Z,-2.9
2023-02-15T03:51:40.181Z,-2.9
2023-02-15T03:54:06.266Z,-2.9
2023-02-15T03:56:32.389Z,-2.9
2023-02-15T03:58:57.487Z,-2.9
2023-02-15T04:01:23.573Z,-2.9
2023-02-15T04:03:49.657Z,-2.9
2023-02-15T04:06:14.843Z,-2.9
2023-02-15T04:08:40.896Z,-2.9
2023-02-15T04:11:06.982Z,-2.9
2023-02-15T04:13:33.071Z,-3
2023-02-15T04:15:58.238Z,-3
2023-02-15T04:18:23.318Z,-3
2023-02-15T04:20:49.407Z,-3
2023-02-15T04:23:15.498Z,-3
2023-02-15T04:25:41.599Z,-3
2023-02-15T04:28:07.763Z,-3
2023-02-15T04:32:59.929Z,-3.1
2023-02-15T04:35:26.026Z,-3.1
2023-02-15T04:37:52.116Z,-3.1
2023-02-15T04:40:18.199Z,-3.1
2023-02-15T04:42:44.310Z,-3.1
2023-02-15T04:45:10.367Z,-3.1
2023-02-15T04:47:36.465Z,-3.1
2023-02-15T04:50:01.591Z,-3.1
2023-02-15T04:52:27.673Z,-3.1
2023-02-15T04:54:53.792Z,-3.1
2023-02-15T04:57:19.864Z,-3.2
2023-02-15T04:59:45.958Z,-3.2
2023-02-15T05:02:12.066Z,-3.2
2023-02-15T05:04:38.162Z,-3.2
2023-02-15T05:07:04.266Z,-3.2
2023-02-15T05:09:29.378Z,-3.2
2023-02-15T05:11:54.596Z,-3.2
2023-02-15T05:14:19.623Z,-3.3
2023-02-15T05:16:44.724Z,-3.3
2023-02-15T05:19:09.857Z,-3.3
2023-02-15T05:21:35.001Z,-3.3
2023-02-15T05:24:01.082Z,-3.3
2023-02-15T05:26:27.166Z,-3.3
2023-02-15T05:28:53.269Z,-3.3
2023-02-15T05:31:19.357Z,-3.4
2023-02-15T05:33:45.452Z,-3.4
2023-02-15T05:36:11.564Z,-3.4
2023-02-15T05:38:37.656Z,-3.4
2023-02-15T05:41:03.754Z,-3.4
2023-02-15T05:43:29.850Z,-3.4
2023-02-15T05:45:55.965Z,-3.4
2023-02-15T05:48:22.086Z,-3.4
2023-02-15T05:50:48.143Z,-3.4
2023-02-15T05:53:13.248Z,-3.4
2023-02-15T05:55:38.379Z,-3.4
2023-02-15T05:58:03.504Z,-3.4
2023-02-15T06:00:29.589Z,-3.5
2023-02-15T06:02:55.736Z,-3.5
2023-02-15T06:05:21.797Z,-3.5
2023-02-15T06:07:47.870Z,-3.5
2023-02-15T06:10:13.991Z,-3.5
2023-02-15T06:12:40.099Z,-3.5
2023-02-15T06:15:06.171Z,-3.5
2023-02-15T06:17:32.293Z,-3.5
2023-02-15T06:19:58.367Z,-3.4
2023-02-15T06:22:24.486Z,-3.3
2023-02-15T06:24:50.577Z,-3.3
2023-02-15T06:27:16.664Z,-3.2
2023-02-15T06:29:41.766Z,-3.2
2023-02-15T06:32:07.883Z,-3.2
2023-02-15T06:34:33.980Z,-3.2
2023-02-15T06:37:00.066Z,-3.2
2023-02-15T06:39:26.210Z,-3.2
2023-02-15T06:41:52.410Z,-3.2
2023-02-15T06:44:18.541Z,-3.2
2023-02-15T06:46:43.617Z,-3.3
2023-02-15T06:49:08.618Z,-3.3
2023-02-15T06:51:34.809Z,-3.3
2023-02-15T06:54:00.795Z,-3.3
2023-02-15T06:56:26.871Z,-3.3
2023-02-15T06:58:52.985Z,-3.3
2023-02-15T07:01:19.121Z,-3.3
2023-02-15T07:03:45.300Z,-3.3
2023-02-15T07:06:11.279Z,-3.3
2023-02-15T07:08:37.415Z,-3.3
2023-02-15T07:11:03.451Z,-3.3
2023-02-15T07:13:29.552Z,-3.3
2023-02-15T07:15:55.654Z,-3.3
2023-02-15T07:18:21.738Z,-3.3
2023-02-15T07:20:46.909Z,-3.2
2023-02-15T07:23:12.950Z,-3.2
2023-02-15T07:25:39.050Z,-3.2
2023-02-15T07:28:05.149Z,-3.2
2023-02-15T07:30:31.235Z,-3.1
2023-02-15T07:32:57.349Z,-3.1
2023-02-15T07:35:23.429Z,-3.1
2023-02-15T07:37:48.546Z,-3.1
2023-02-15T07:40:13.732Z,-3
2023-02-15T07:42:39.764Z,-3
2023-02-15T07:45:05.868Z,-2.9
2023-02-15T07:47:32.040Z,-2.9
2023-02-15T07:49:58.111Z,-2.9
2023-02-15T07:52:24.340Z,-2.8
2023-02-15T07:54:50.352Z,-2.8
2023-02-15T07:57:16.342Z,-2.8
2023-02-15T07:59:42.514Z,-2.7
2023-02-15T08:02:08.572Z,-2.7
2023-02-15T08:04:34.774Z,-2.6
2023-02-15T08:07:00.743Z,-2.6
2023-02-15T08:09:26.842Z,-2.5
2023-02-15T08:11:51.954Z,-2.4
2023-02-15T08:14:18.052Z,-2.4
2023-02-15T08:16:44.213Z,-2.3
2023-02-15T11:53:32.865Z,3.8
2023-02-15T12:02:02.684Z,4.2
2023-02-15T12:20:08.794Z,5.1
2023-02-15T12:28:39.069Z,5.7
2023-02-15T13:35:49.779Z,8.1
2023-02-15T15:01:06.969Z,8.8
2023-02-15T15:18:07.321Z,8.8
2023-02-15T15:32:39.069Z,8.4
2023-02-15T17:02:19.123Z,4.4
2023-02-15T17:11:22.183Z,4.1
2023-02-15T17:20:25.221Z,3.7
2023-02-15T17:31:56.103Z,3.2
2023-02-15T18:03:28.173Z,2.3
2023-02-15T19:31:13.249Z,0.6
2023-02-15T20:00:17.485Z,0.4
2023-02-15T20:05:13.166Z,0.3
2023-02-15T22:02:02.498Z,-0.5
2023-02-15T22:33:35.015Z,-0.7
